sensor_id;sensor_type;location;lat;lon;timestamp;P1;durP1;ratioP1;P2;durP2;ratioP2
78887;SDS011;68276;49.326;8.690;2023-07-08T00:00:22;11.35;;;3.85;;
78887;SDS011;68276;49.326;8.690;2023-07-08T00:02:48;9.57;;;3.53;;
78887;SDS011;68276;49.326;8.690;2023-07-08T00:05:15;10.43;;;3.97;;
78887;SDS011;68276;49.326;8.690;2023-07-08T00:07:42;9.43;;;3.78;;
78887;SDS011;68276;49.326;8.690;2023-07-08T00:10:18;9.75;;;3.78;;
78887;SDS011;68276;49.326;8.690;2023-07-08T00:12:49;9.98;;;3.67;;
78887;SDS011;68276;49.326;8.690;2023-07-08T00:15:17;11.65;;;3.80;;
78887;SDS011;68276;49.326;8.690;2023-07-08T00:17:43;10.98;;;3.78;;
78887;SDS011;68276;49.326;8.690;2023-07-08T00:20:10;10.45;;;3.97;;
78887;SDS011;68276;49.326;8.690;2023-07-08T00:22:38;8.93;;;3.85;;
78887;SDS011;68276;49.326;8.690;2023-07-08T00:25:06;11.35;;;3.65;;
78887;SDS011;68276;49.326;8.690;2023-07-08T00:27:33;10.00;;;3.28;;
78887;SDS011;68276;49.326;8.690;2023-07-08T00:29:59;8.52;;;3.08;;
78887;SDS011;68276;49.326;8.690;2023-07-08T00:32:25;10.60;;;3.55;;
78887;SDS011;68276;49.326;8.690;2023-07-08T00:34:51;11.63;;;3.50;;
78887;SDS011;68276;49.326;8.690;2023-07-08T00:37:16;10.67;;;3.50;;
78887;SDS011;68276;49.326;8.690;2023-07-08T00:42:17;9.27;;;3.50;;
78887;SDS011;68276;49.326;8.690;2023-07-08T00:44:44;8.77;;;3.17;;
78887;SDS011;68276;49.326;8.690;2023-07-08T00:47:11;9.32;;;3.50;;
78887;SDS011;68276;49.326;8.690;2023-07-08T00:52:28;11.38;;;4.00;;
78887;SDS011;68276;49.326;8.690;2023-07-08T00:54:55;9.52;;;3.70;;
78887;SDS011;68276;49.326;8.690;2023-07-08T00:57:25;9.90;;;3.65;;
78887;SDS011;68276;49.326;8.690;2023-07-08T00:59:59;12.82;;;3.72;;
78887;SDS011;68276;49.326;8.690;2023-07-08T01:02:29;10.63;;;3.83;;
78887;SDS011;68276;49.326;8.690;2023-07-08T01:04:58;10.30;;;3.70;;
78887;SDS011;68276;49.326;8.690;2023-07-08T01:07:30;10.23;;;3.70;;
78887;SDS011;68276;49.326;8.690;2023-07-08T01:10:00;9.68;;;3.33;;
78887;SDS011;68276;49.326;8.690;2023-07-08T01:12:33;9.15;;;3.30;;
78887;SDS011;68276;49.326;8.690;2023-07-08T01:15:03;11.18;;;3.47;;
78887;SDS011;68276;49.326;8.690;2023-07-08T01:17:31;12.02;;;3.38;;
78887;SDS011;68276;49.326;8.690;2023-07-08T01:19:58;10.30;;;3.30;;
78887;SDS011;68276;49.326;8.690;2023-07-08T01:22:24;10.27;;;3.88;;
78887;SDS011;68276;49.326;8.690;2023-07-08T01:24:50;9.98;;;3.47;;
78887;SDS011;68276;49.326;8.690;2023-07-08T01:27:16;10.20;;;2.92;;
78887;SDS011;68276;49.326;8.690;2023-07-08T01:29:44;10.80;;;3.22;;
78887;SDS011;68276;49.326;8.690;2023-07-08T01:32:12;9.25;;;3.30;;
78887;SDS011;68276;49.326;8.690;2023-07-08T01:34:43;9.82;;;3.70;;
78887;SDS011;68276;49.326;8.690;2023-07-08T01:37:28;9.88;;;3.70;;
78887;SDS011;68276;49.326;8.690;2023-07-08T01:39:56;11.05;;;3.50;;
78887;SDS011;68276;49.326;8.690;2023-07-08T01:42:22;9.02;;;3.50;;
78887;SDS011;68276;49.326;8.690;2023-07-08T01:44:48;11.27;;;3.65;;
78887;SDS011;68276;49.326;8.690;2023-07-08T01:47:15;9.98;;;3.55;;
78887;SDS011;68276;49.326;8.690;2023-07-08T01:49:44;11.50;;;3.65;;
78887;SDS011;68276;49.326;8.690;2023-07-08T01:52:11;10.02;;;3.40;;
78887;SDS011;68276;49.326;8.690;2023-07-08T01:54:37;9.43;;;3.15;;
78887;SDS011;68276;49.326;8.690;2023-07-08T01:57:03;9.93;;;3.57;;
78887;SDS011;68276;49.326;8.690;2023-07-08T02:01:54;10.38;;;3.17;;
78887;SDS011;68276;49.326;8.690;2023-07-08T02:04:21;9.38;;;3.47;;
78887;SDS011;68276;49.326;8.690;2023-07-08T02:06:59;10.48;;;3.47;;
78887;SDS011;68276;49.326;8.690;2023-07-08T02:09:25;10.02;;;3.15;;
78887;SDS011;68276;49.326;8.690;2023-07-08T02:14:17;10.27;;;3.30;;
78887;SDS011;68276;49.326;8.690;2023-07-08T02:16:42;9.13;;;3.30;;
78887;SDS011;68276;49.326;8.690;2023-07-08T02:19:08;9.70;;;3.40;;
78887;SDS011;68276;49.326;8.690;2023-07-08T02:21:34;9.48;;;3.35;;
78887;SDS011;68276;49.326;8.690;2023-07-08T02:26:25;10.43;;;3.17;;
78887;SDS011;68276;49.326;8.690;2023-07-08T02:28:51;11.10;;;3.08;;
78887;SDS011;68276;49.326;8.690;2023-07-08T02:31:17;9.38;;;3.47;;
78887;SDS011;68276;49.326;8.690;2023-07-08T02:33:42;9.77;;;3.30;;
78887;SDS011;68276;49.326;8.690;2023-07-08T02:38:33;9.67;;;3.00;;
78887;SDS011;68276;49.326;8.690;2023-07-08T02:40:58;9.83;;;3.23;;
78887;SDS011;68276;49.326;8.690;2023-07-08T02:43:24;9.32;;;3.30;;
78887;SDS011;68276;49.326;8.690;2023-07-08T02:48:17;9.15;;;3.22;;
78887;SDS011;68276;49.326;8.690;2023-07-08T02:50:43;9.15;;;3.35;;
78887;SDS011;68276;49.326;8.690;2023-07-08T02:55:33;9.70;;;3.40;;
78887;SDS011;68276;49.326;8.690;2023-07-08T02:57:59;9.17;;;2.87;;
78887;SDS011;68276;49.326;8.690;2023-07-08T03:00:24;9.38;;;3.30;;
78887;SDS011;68276;49.326;8.690;2023-07-08T03:02:49;9.80;;;3.30;;
78887;SDS011;68276;49.326;8.690;2023-07-08T03:05:15;10.13;;;3.17;;
78887;SDS011;68276;49.326;8.690;2023-07-08T03:10:06;8.70;;;2.93;;
78887;SDS011;68276;49.326;8.690;2023-07-08T03:12:31;10.02;;;3.30;;
78887;SDS011;68276;49.326;8.690;2023-07-08T03:17:22;8.93;;;3.00;;
78887;SDS011;68276;49.326;8.690;2023-07-08T03:22:12;9.80;;;3.13;;
78887;SDS011;68276;49.326;8.690;2023-07-08T03:27:10;8.93;;;2.88;;
78887;SDS011;68276;49.326;8.690;2023-07-08T03:32:02;9.20;;;3.17;;
78887;SDS011;68276;49.326;8.690;2023-07-08T03:36:53;8.47;;;3.20;;
78887;SDS011;68276;49.326;8.690;2023-07-08T03:39:20;9.13;;;3.20;;
78887;SDS011;68276;49.326;8.690;2023-07-08T03:41:49;9.80;;;3.10;;
78887;SDS011;68276;49.326;8.690;2023-07-08T03:44:15;9.07;;;3.50;;
78887;SDS011;68276;49.326;8.690;2023-07-08T03:49:08;9.90;;;3.17;;
78887;SDS011;68276;49.326;8.690;2023-07-08T03:51:36;10.50;;;3.33;;
78887;SDS011;68276;49.326;8.690;2023-07-08T03:54:03;8.10;;;3.28;;
78887;SDS011;68276;49.326;8.690;2023-07-08T03:56:29;8.48;;;3.47;;
78887;SDS011;68276;49.326;8.690;2023-07-08T04:01:21;8.63;;;3.00;;
78887;SDS011;68276;49.326;8.690;2023-07-08T04:03:51;9.48;;;3.10;;
78887;SDS011;68276;49.326;8.690;2023-07-08T04:06:18;9.95;;;3.17;;
78887;SDS011;68276;49.326;8.690;2023-07-08T04:11:12;10.17;;;3.30;;
78887;SDS011;68276;49.326;8.690;2023-07-08T04:13:39;9.27;;;3.17;;
78887;SDS011;68276;49.326;8.690;2023-07-08T04:18:30;12.57;;;3.15;;
78887;SDS011;68276;49.326;8.690;2023-07-08T04:23:22;9.63;;;3.10;;
78887;SDS011;68276;49.326;8.690;2023-07-08T04:25:49;8.68;;;3.20;;
78887;SDS011;68276;49.326;8.690;2023-07-08T04:28:15;10.10;;;3.55;;
78887;SDS011;68276;49.326;8.690;2023-07-08T04:33:11;10.23;;;3.65;;
78887;SDS011;68276;49.326;8.690;2023-07-08T04:35:38;9.63;;;3.22;;
78887;SDS011;68276;49.326;8.690;2023-07-08T04:38:05;7.90;;;2.88;;
78887;SDS011;68276;49.326;8.690;2023-07-08T04:40:35;8.73;;;2.95;;
78887;SDS011;68276;49.326;8.690;2023-07-08T04:43:08;9.52;;;3.08;;
78887;SDS011;68276;49.326;8.690;2023-07-08T04:45:37;9.20;;;2.92;;
78887;SDS011;68276;49.326;8.690;2023-07-08T04:48:05;8.77;;;3.03;;
78887;SDS011;68276;49.326;8.690;2023-07-08T04:50:39;9.38;;;3.13;;
78887;SDS011;68276;49.326;8.690;2023-07-08T04:53:05;10.00;;;3.15;;
78887;SDS011;68276;49.326;8.690;2023-07-08T04:57:56;10.33;;;3.13;;
78887;SDS011;68276;49.326;8.690;2023-07-08T05:00:21;8.43;;;2.93;;
78887;SDS011;68276;49.326;8.690;2023-07-08T05:05:13;11.10;;;2.95;;
78887;SDS011;68276;49.326;8.690;2023-07-08T05:10:03;8.77;;;2.80;;
78887;SDS011;68276;49.326;8.690;2023-07-08T05:14:54;8.53;;;2.97;;
78887;SDS011;68276;49.326;8.690;2023-07-08T05:19:45;7.87;;;2.90;;
78887;SDS011;68276;49.326;8.690;2023-07-08T05:24:37;11.35;;;3.70;;
78887;SDS011;68276;49.326;8.690;2023-07-08T05:29:28;9.85;;;3.40;;
78887;SDS011;68276;49.326;8.690;2023-07-08T05:34:18;10.07;;;2.87;;
78887;SDS011;68276;49.326;8.690;2023-07-08T05:39:09;7.40;;;2.63;;
78887;SDS011;68276;49.326;8.690;2023-07-08T05:44:00;10.27;;;2.90;;
78887;SDS011;68276;49.326;8.690;2023-07-08T05:46:25;8.20;;;2.60;;
78887;SDS011;68276;49.326;8.690;2023-07-08T05:51:16;9.30;;;3.03;;
78887;SDS011;68276;49.326;8.690;2023-07-08T05:56:07;10.97;;;3.20;;
78887;SDS011;68276;49.326;8.690;2023-07-08T06:00:58;8.35;;;3.00;;
78887;SDS011;68276;49.326;8.690;2023-07-08T06:03:23;9.18;;;3.17;;
78887;SDS011;68276;49.326;8.690;2023-07-08T06:05:49;9.57;;;3.25;;
78887;SDS011;68276;49.326;8.690;2023-07-08T06:08:14;8.68;;;2.90;;
78887;SDS011;68276;49.326;8.690;2023-07-08T06:10:44;8.90;;;3.22;;
78887;SDS011;68276;49.326;8.690;2023-07-08T06:13:10;9.20;;;3.10;;
78887;SDS011;68276;49.326;8.690;2023-07-08T06:15:36;9.00;;;2.88;;
78887;SDS011;68276;49.326;8.690;2023-07-08T06:20:28;11.10;;;2.72;;
78887;SDS011;68276;49.326;8.690;2023-07-08T06:25:19;9.50;;;3.27;;
78887;SDS011;68276;49.326;8.690;2023-07-08T06:27:44;10.05;;;3.15;;
78887;SDS011;68276;49.326;8.690;2023-07-08T06:32:35;8.43;;;2.83;;
78887;SDS011;68276;49.326;8.690;2023-07-08T06:37:26;11.30;;;3.17;;
78887;SDS011;68276;49.326;8.690;2023-07-08T06:39:51;9.38;;;3.20;;
78887;SDS011;68276;49.326;8.690;2023-07-08T06:42:17;9.40;;;3.23;;
78887;SDS011;68276;49.326;8.690;2023-07-08T06:44:42;8.93;;;2.83;;
78887;SDS011;68276;49.326;8.690;2023-07-08T06:47:15;9.68;;;3.35;;
78887;SDS011;68276;49.326;8.690;2023-07-08T06:49:45;8.80;;;2.97;;
78887;SDS011;68276;49.326;8.690;2023-07-08T06:52:11;8.68;;;2.97;;
78887;SDS011;68276;49.326;8.690;2023-07-08T06:54:37;9.15;;;3.40;;
78887;SDS011;68276;49.326;8.690;2023-07-08T06:59:27;13.40;;;3.23;;
78887;SDS011;68276;49.326;8.690;2023-07-08T07:01:53;9.45;;;3.00;;
78887;SDS011;68276;49.326;8.690;2023-07-08T07:04:19;8.32;;;2.83;;
78887;SDS011;68276;49.326;8.690;2023-07-08T07:06:44;9.27;;;3.27;;
78887;SDS011;68276;49.326;8.690;2023-07-08T07:09:09;8.80;;;2.80;;
78887;SDS011;68276;49.326;8.690;2023-07-08T07:11:35;10.43;;;3.23;;
78887;SDS011;68276;49.326;8.690;2023-07-08T07:14:00;8.40;;;3.00;;
78887;SDS011;68276;49.326;8.690;2023-07-08T07:16:26;9.68;;;2.70;;
78887;SDS011;68276;49.326;8.690;2023-07-08T07:18:51;8.13;;;2.67;;
78887;SDS011;68276;49.326;8.690;2023-07-08T07:21:17;8.68;;;2.85;;
78887;SDS011;68276;49.326;8.690;2023-07-08T07:23:43;9.55;;;3.10;;
78887;SDS011;68276;49.326;8.690;2023-07-08T07:26:08;7.30;;;2.53;;
78887;SDS011;68276;49.326;8.690;2023-07-08T07:28:33;8.48;;;2.35;;
78887;SDS011;68276;49.326;8.690;2023-07-08T07:30:59;8.65;;;2.42;;
78887;SDS011;68276;49.326;8.690;2023-07-08T07:33:25;7.05;;;2.30;;
78887;SDS011;68276;49.326;8.690;2023-07-08T07:35:51;8.15;;;2.58;;
78887;SDS011;68276;49.326;8.690;2023-07-08T07:38:17;8.40;;;2.20;;
78887;SDS011;68276;49.326;8.690;2023-07-08T07:40:42;8.35;;;2.50;;
78887;SDS011;68276;49.326;8.690;2023-07-08T07:43:08;7.10;;;1.80;;
78887;SDS011;68276;49.326;8.690;2023-07-08T07:45:34;8.02;;;2.22;;
78887;SDS011;68276;49.326;8.690;2023-07-08T07:48:00;7.65;;;2.00;;
78887;SDS011;68276;49.326;8.690;2023-07-08T07:50:25;7.45;;;2.17;;
78887;SDS011;68276;49.326;8.690;2023-07-08T07:52:51;6.97;;;2.00;;
78887;SDS011;68276;49.326;8.690;2023-07-08T07:55:16;7.25;;;2.28;;
78887;SDS011;68276;49.326;8.690;2023-07-08T07:57:42;8.40;;;2.00;;
78887;SDS011;68276;49.326;8.690;2023-07-08T08:00:10;7.70;;;2.15;;
78887;SDS011;68276;49.326;8.690;2023-07-08T08:02:36;7.38;;;2.10;;
78887;SDS011;68276;49.326;8.690;2023-07-08T08:05:02;6.47;;;2.10;;
78887;SDS011;68276;49.326;8.690;2023-07-08T08:07:27;7.15;;;2.22;;
78887;SDS011;68276;49.326;8.690;2023-07-08T08:09:53;8.30;;;1.80;;
78887;SDS011;68276;49.326;8.690;2023-07-08T08:12:18;7.70;;;2.40;;
78887;SDS011;68276;49.326;8.690;2023-07-08T08:14:44;8.30;;;2.03;;
78887;SDS011;68276;49.326;8.690;2023-07-08T08:17:09;6.38;;;1.83;;
78887;SDS011;68276;49.326;8.690;2023-07-08T08:19:34;7.65;;;2.15;;
78887;SDS011;68276;49.326;8.690;2023-07-08T08:22:00;7.40;;;1.60;;
78887;SDS011;68276;49.326;8.690;2023-07-08T08:24:25;8.25;;;2.40;;
78887;SDS011;68276;49.326;8.690;2023-07-08T08:26:51;5.80;;;1.90;;
78887;SDS011;68276;49.326;8.690;2023-07-08T08:29:16;6.97;;;1.65;;
78887;SDS011;68276;49.326;8.690;2023-07-08T08:31:42;5.43;;;2.10;;
78887;SDS011;68276;49.326;8.690;2023-07-08T08:34:07;5.47;;;1.60;;
78887;SDS011;68276;49.326;8.690;2023-07-08T08:36:32;6.70;;;1.70;;
78887;SDS011;68276;49.326;8.690;2023-07-08T08:38:58;6.30;;;1.90;;
78887;SDS011;68276;49.326;8.690;2023-07-08T08:41:34;6.13;;;1.80;;
78887;SDS011;68276;49.326;8.690;2023-07-08T08:44:02;6.50;;;1.55;;
78887;SDS011;68276;49.326;8.690;2023-07-08T08:46:32;6.68;;;1.65;;
78887;SDS011;68276;49.326;8.690;2023-07-08T08:51:46;7.53;;;1.80;;
78887;SDS011;68276;49.326;8.690;2023-07-08T08:54:13;6.35;;;1.83;;
78887;SDS011;68276;49.326;8.690;2023-07-08T08:59:35;5.55;;;1.52;;
78887;SDS011;68276;49.326;8.690;2023-07-08T09:02:07;6.47;;;1.58;;
78887;SDS011;68276;49.326;8.690;2023-07-08T09:04:43;9.30;;;1.63;;
78887;SDS011;68276;49.326;8.690;2023-07-08T09:07:13;6.82;;;1.70;;
78887;SDS011;68276;49.326;8.690;2023-07-08T09:12:11;5.95;;;1.63;;
78887;SDS011;68276;49.326;8.690;2023-07-08T09:22:48;5.80;;;1.63;;
78887;SDS011;68276;49.326;8.690;2023-07-08T09:28:12;7.22;;;1.95;;
78887;SDS011;68276;49.326;8.690;2023-07-08T09:30:38;6.20;;;1.67;;
78887;SDS011;68276;49.326;8.690;2023-07-08T09:33:04;7.57;;;2.30;;
78887;SDS011;68276;49.326;8.690;2023-07-08T09:35:40;6.95;;;2.58;;
78887;SDS011;68276;49.326;8.690;2023-07-08T09:38:13;7.93;;;1.88;;
78887;SDS011;68276;49.326;8.690;2023-07-08T09:40:44;6.78;;;2.17;;
78887;SDS011;68276;49.326;8.690;2023-07-08T09:43:19;7.20;;;2.00;;
78887;SDS011;68276;49.326;8.690;2023-07-08T09:45:52;6.35;;;2.20;;
78887;SDS011;68276;49.326;8.690;2023-07-08T09:48:26;6.88;;;1.92;;
78887;SDS011;68276;49.326;8.690;2023-07-08T09:50:59;6.03;;;1.92;;
78887;SDS011;68276;49.326;8.690;2023-07-08T09:53:25;7.60;;;2.08;;
78887;SDS011;68276;49.326;8.690;2023-07-08T09:55:51;7.05;;;1.92;;
78887;SDS011;68276;49.326;8.690;2023-07-08T09:58:25;9.93;;;2.33;;
78887;SDS011;68276;49.326;8.690;2023-07-08T10:00:52;7.68;;;2.70;;
78887;SDS011;68276;49.326;8.690;2023-07-08T10:03:21;8.38;;;2.13;;
78887;SDS011;68276;49.326;8.690;2023-07-08T10:05:51;8.95;;;2.17;;
78887;SDS011;68276;49.326;8.690;2023-07-08T10:08:19;6.60;;;2.00;;
78887;SDS011;68276;49.326;8.690;2023-07-08T10:10:50;6.88;;;2.13;;
78887;SDS011;68276;49.326;8.690;2023-07-08T10:13:28;6.40;;;1.88;;
78887;SDS011;68276;49.326;8.690;2023-07-08T10:16:03;8.55;;;2.13;;
78887;SDS011;68276;49.326;8.690;2023-07-08T10:18:34;7.50;;;1.85;;
78887;SDS011;68276;49.326;8.690;2023-07-08T10:23:54;7.07;;;1.95;;
78887;SDS011;68276;49.326;8.690;2023-07-08T10:26:31;7.93;;;2.35;;
78887;SDS011;68276;49.326;8.690;2023-07-08T10:37:28;7.22;;;2.80;;
78887;SDS011;68276;49.326;8.690;2023-07-08T10:40:25;9.35;;;2.60;;
78887;SDS011;68276;49.326;8.690;2023-07-08T11:00:11;7.25;;;2.60;;
78887;SDS011;68276;49.326;8.690;2023-07-08T11:03:04;7.88;;;2.65;;
78887;SDS011;68276;49.326;8.690;2023-07-08T11:08:22;10.57;;;2.58;;
78887;SDS011;68276;49.326;8.690;2023-07-08T11:10:59;8.15;;;2.80;;
78887;SDS011;68276;49.326;8.690;2023-07-08T11:13:29;9.18;;;2.30;;
78887;SDS011;68276;49.326;8.690;2023-07-08T11:16:07;8.38;;;2.75;;
78887;SDS011;68276;49.326;8.690;2023-07-08T11:21:38;8.05;;;2.53;;
78887;SDS011;68276;49.326;8.690;2023-07-08T11:24:21;7.65;;;2.22;;
78887;SDS011;68276;49.326;8.690;2023-07-08T11:27:00;8.65;;;2.38;;
78887;SDS011;68276;49.326;8.690;2023-07-08T11:29:32;8.25;;;2.40;;
78887;SDS011;68276;49.326;8.690;2023-07-08T11:32:03;7.88;;;2.53;;
78887;SDS011;68276;49.326;8.690;2023-07-08T11:34:30;7.45;;;2.63;;
78887;SDS011;68276;49.326;8.690;2023-07-08T11:36:58;8.27;;;2.50;;
78887;SDS011;68276;49.326;8.690;2023-07-08T11:39:44;7.85;;;2.58;;
78887;SDS011;68276;49.326;8.690;2023-07-08T11:42:21;7.55;;;2.42;;
78887;SDS011;68276;49.326;8.690;2023-07-08T11:44:51;7.60;;;2.58;;
78887;SDS011;68276;49.326;8.690;2023-07-08T11:47:35;8.25;;;2.55;;
78887;SDS011;68276;49.326;8.690;2023-07-08T11:50:08;7.25;;;2.20;;
78887;SDS011;68276;49.326;8.690;2023-07-08T11:53:03;10.82;;;2.50;;
78887;SDS011;68276;49.326;8.690;2023-07-08T11:55:37;10.23;;;2.25;;
78887;SDS011;68276;49.326;8.690;2023-07-08T11:58:13;9.50;;;2.70;;
78887;SDS011;68276;49.326;8.690;2023-07-08T12:00:51;7.53;;;2.50;;
78887;SDS011;68276;49.326;8.690;2023-07-08T12:03:22;6.88;;;2.35;;
78887;SDS011;68276;49.326;8.690;2023-07-08T12:05:54;7.07;;;2.33;;
78887;SDS011;68276;49.326;8.690;2023-07-08T12:08:22;8.32;;;2.75;;
78887;SDS011;68276;49.326;8.690;2023-07-08T12:11:02;10.25;;;2.50;;
78887;SDS011;68276;49.326;8.690;2023-07-08T12:13:28;7.93;;;2.60;;
78887;SDS011;68276;49.326;8.690;2023-07-08T12:15:53;9.03;;;2.27;;
78887;SDS011;68276;49.326;8.690;2023-07-08T12:18:24;7.40;;;2.60;;
78887;SDS011;68276;49.326;8.690;2023-07-08T12:20:54;8.98;;;2.60;;
78887;SDS011;68276;49.326;8.690;2023-07-08T12:23:22;6.95;;;2.30;;
78887;SDS011;68276;49.326;8.690;2023-07-08T12:25:50;6.80;;;2.35;;
78887;SDS011;68276;49.326;8.690;2023-07-08T12:28:16;7.45;;;2.47;;
78887;SDS011;68276;49.326;8.690;2023-07-08T12:30:43;7.75;;;2.13;;
78887;SDS011;68276;49.326;8.690;2023-07-08T12:33:32;8.68;;;2.50;;
78887;SDS011;68276;49.326;8.690;2023-07-08T12:35:57;8.57;;;2.70;;
78887;SDS011;68276;49.326;8.690;2023-07-08T12:38:32;7.85;;;2.30;;
78887;SDS011;68276;49.326;8.690;2023-07-08T12:41:05;7.88;;;2.63;;
78887;SDS011;68276;49.326;8.690;2023-07-08T12:43:35;9.90;;;2.30;;
78887;SDS011;68276;49.326;8.690;2023-07-08T12:46:00;7.13;;;2.60;;
78887;SDS011;68276;49.326;8.690;2023-07-08T12:48:34;6.88;;;2.25;;
78887;SDS011;68276;49.326;8.690;2023-07-08T12:51:00;8.68;;;2.15;;
78887;SDS011;68276;49.326;8.690;2023-07-08T12:53:27;7.53;;;2.30;;
78887;SDS011;68276;49.326;8.690;2023-07-08T12:55:53;8.07;;;2.47;;
78887;SDS011;68276;49.326;8.690;2023-07-08T12:58:23;7.78;;;2.30;;
78887;SDS011;68276;49.326;8.690;2023-07-08T13:00:52;8.90;;;2.55;;
78887;SDS011;68276;49.326;8.690;2023-07-08T13:03:19;7.50;;;2.53;;
78887;SDS011;68276;49.326;8.690;2023-07-08T13:05:48;6.68;;;2.42;;
78887;SDS011;68276;49.326;8.690;2023-07-08T13:08:17;8.45;;;2.30;;
78887;SDS011;68276;49.326;8.690;2023-07-08T13:10:45;7.88;;;2.13;;
78887;SDS011;68276;49.326;8.690;2023-07-08T13:13:16;8.57;;;2.40;;
78887;SDS011;68276;49.326;8.690;2023-07-08T13:15:45;9.55;;;2.53;;
78887;SDS011;68276;49.326;8.690;2023-07-08T13:18:14;6.88;;;2.35;;
78887;SDS011;68276;49.326;8.690;2023-07-08T13:20:42;7.20;;;2.28;;
78887;SDS011;68276;49.326;8.690;2023-07-08T13:23:15;9.30;;;2.15;;
78887;SDS011;68276;49.326;8.690;2023-07-08T13:25:40;6.90;;;2.30;;
78887;SDS011;68276;49.326;8.690;2023-07-08T13:30:54;8.85;;;2.17;;
78887;SDS011;68276;49.326;8.690;2023-07-08T13:33:22;7.72;;;2.30;;
78887;SDS011;68276;49.326;8.690;2023-07-08T13:35:48;9.23;;;2.30;;
78887;SDS011;68276;49.326;8.690;2023-07-08T13:38:16;8.05;;;2.30;;
78887;SDS011;68276;49.326;8.690;2023-07-08T13:40:45;6.78;;;2.13;;
78887;SDS011;68276;49.326;8.690;2023-07-08T13:43:12;6.95;;;1.98;;
78887;SDS011;68276;49.326;8.690;2023-07-08T13:45:41;6.53;;;2.10;;
78887;SDS011;68276;49.326;8.690;2023-07-08T13:48:14;9.07;;;2.08;;
78887;SDS011;68276;49.326;8.690;2023-07-08T13:51:37;7.97;;;2.40;;
78887;SDS011;68276;49.326;8.690;2023-07-08T13:56:16;6.75;;;2.22;;
78887;SDS011;68276;49.326;8.690;2023-07-08T13:58:51;6.88;;;2.17;;
78887;SDS011;68276;49.326;8.690;2023-07-08T14:01:25;7.65;;;2.35;;
78887;SDS011;68276;49.326;8.690;2023-07-08T14:03:52;8.27;;;2.45;;
78887;SDS011;68276;49.326;8.690;2023-07-08T14:06:20;6.22;;;2.40;;
78887;SDS011;68276;49.326;8.690;2023-07-08T14:08:55;8.73;;;2.30;;
78887;SDS011;68276;49.326;8.690;2023-07-08T14:11:23;7.35;;;2.35;;
78887;SDS011;68276;49.326;8.690;2023-07-08T14:13:49;6.55;;;2.50;;
78887;SDS011;68276;49.326;8.690;2023-07-08T14:16:21;7.97;;;2.60;;
78887;SDS011;68276;49.326;8.690;2023-07-08T14:18:47;8.23;;;2.40;;
78887;SDS011;68276;49.326;8.690;2023-07-08T14:21:12;9.88;;;2.42;;
78887;SDS011;68276;49.326;8.690;2023-07-08T14:23:38;6.38;;;2.33;;
78887;SDS011;68276;49.326;8.690;2023-07-08T14:26:07;9.00;;;2.90;;
78887;SDS011;68276;49.326;8.690;2023-07-08T14:28:35;6.60;;;2.42;;
78887;SDS011;68276;49.326;8.690;2023-07-08T14:31:00;7.80;;;2.70;;
78887;SDS011;68276;49.326;8.690;2023-07-08T14:33:26;6.00;;;2.22;;
78887;SDS011;68276;49.326;8.690;2023-07-08T14:35:51;6.70;;;2.33;;
78887;SDS011;68276;49.326;8.690;2023-07-08T14:38:16;6.43;;;2.60;;
78887;SDS011;68276;49.326;8.690;2023-07-08T14:40:42;6.93;;;2.33;;
78887;SDS011;68276;49.326;8.690;2023-07-08T14:43:18;9.07;;;2.63;;
78887;SDS011;68276;49.326;8.690;2023-07-08T14:45:52;7.47;;;2.08;;
78887;SDS011;68276;49.326;8.690;2023-07-08T14:48:21;8.15;;;2.60;;
78887;SDS011;68276;49.326;8.690;2023-07-08T14:50:49;7.53;;;2.63;;
78887;SDS011;68276;49.326;8.690;2023-07-08T14:53:15;6.88;;;2.25;;
78887;SDS011;68276;49.326;8.690;2023-07-08T14:55:42;8.48;;;2.30;;
78887;SDS011;68276;49.326;8.690;2023-07-08T14:58:10;7.32;;;2.38;;
78887;SDS011;68276;49.326;8.690;2023-07-08T15:00:45;5.70;;;2.13;;
78887;SDS011;68276;49.326;8.690;2023-07-08T15:03:10;7.18;;;2.10;;
78887;SDS011;68276;49.326;8.690;2023-07-08T15:05:36;5.83;;;2.43;;
78887;SDS011;68276;49.326;8.690;2023-07-08T15:08:01;6.70;;;2.50;;
78887;SDS011;68276;49.326;8.690;2023-07-08T15:10:27;6.65;;;2.08;;
78887;SDS011;68276;49.326;8.690;2023-07-08T15:12:55;6.10;;;2.15;;
78887;SDS011;68276;49.326;8.690;2023-07-08T15:17:59;7.25;;;3.10;;
78887;SDS011;68276;49.326;8.690;2023-07-08T15:22:53;7.68;;;2.50;;
78887;SDS011;68276;49.326;8.690;2023-07-08T15:25:18;7.88;;;3.05;;
78887;SDS011;68276;49.326;8.690;2023-07-08T15:27:45;6.60;;;2.83;;
78887;SDS011;68276;49.326;8.690;2023-07-08T15:30:17;7.40;;;2.38;;
78887;SDS011;68276;49.326;8.690;2023-07-08T15:32:47;7.55;;;2.58;;
78887;SDS011;68276;49.326;8.690;2023-07-08T15:35:13;7.45;;;3.33;;
78887;SDS011;68276;49.326;8.690;2023-07-08T15:37:41;8.25;;;2.33;;
78887;SDS011;68276;49.326;8.690;2023-07-08T15:40:09;8.45;;;2.78;;
78887;SDS011;68276;49.326;8.690;2023-07-08T15:42:37;6.65;;;3.08;;
78887;SDS011;68276;49.326;8.690;2023-07-08T15:48:02;7.93;;;2.13;;
78887;SDS011;68276;49.326;8.690;2023-07-08T15:50:28;7.95;;;2.08;;
78887;SDS011;68276;49.326;8.690;2023-07-08T15:52:53;5.63;;;1.98;;
78887;SDS011;68276;49.326;8.690;2023-07-08T15:55:26;7.10;;;2.45;;
78887;SDS011;68276;49.326;8.690;2023-07-08T15:57:56;6.78;;;2.60;;
78887;SDS011;68276;49.326;8.690;2023-07-08T16:00:25;8.07;;;2.63;;
78887;SDS011;68276;49.326;8.690;2023-07-08T16:02:53;6.47;;;2.53;;
78887;SDS011;68276;49.326;8.690;2023-07-08T16:05:24;6.75;;;2.40;;
78887;SDS011;68276;49.326;8.690;2023-07-08T16:07:51;7.47;;;2.53;;
78887;SDS011;68276;49.326;8.690;2023-07-08T16:10:19;6.60;;;2.20;;
78887;SDS011;68276;49.326;8.690;2023-07-08T16:12:46;8.02;;;2.67;;
78887;SDS011;68276;49.326;8.690;2023-07-08T16:15:12;6.53;;;2.60;;
78887;SDS011;68276;49.326;8.690;2023-07-08T16:17:40;6.75;;;2.28;;
78887;SDS011;68276;49.326;8.690;2023-07-08T16:20:16;6.47;;;2.50;;
78887;SDS011;68276;49.326;8.690;2023-07-08T16:22:45;7.57;;;2.45;;
78887;SDS011;68276;49.326;8.690;2023-07-08T16:25:11;6.75;;;2.35;;
78887;SDS011;68276;49.326;8.690;2023-07-08T16:27:45;8.48;;;2.45;;
78887;SDS011;68276;49.326;8.690;2023-07-08T16:30:16;8.23;;;2.60;;
78887;SDS011;68276;49.326;8.690;2023-07-08T16:35:13;6.53;;;2.08;;
78887;SDS011;68276;49.326;8.690;2023-07-08T16:37:40;7.13;;;2.30;;
78887;SDS011;68276;49.326;8.690;2023-07-08T16:40:08;7.47;;;1.80;;
78887;SDS011;68276;49.326;8.690;2023-07-08T16:42:41;7.05;;;2.67;;
78887;SDS011;68276;49.326;8.690;2023-07-08T16:45:12;9.15;;;2.70;;
78887;SDS011;68276;49.326;8.690;2023-07-08T16:47:39;7.03;;;2.33;;
78887;SDS011;68276;49.326;8.690;2023-07-08T16:50:05;6.07;;;2.55;;
78887;SDS011;68276;49.326;8.690;2023-07-08T16:52:31;8.00;;;3.38;;
78887;SDS011;68276;49.326;8.690;2023-07-08T16:54:57;7.90;;;2.45;;
78887;SDS011;68276;49.326;8.690;2023-07-08T16:57:23;6.63;;;2.60;;
78887;SDS011;68276;49.326;8.690;2023-07-08T16:59:49;6.93;;;2.17;;
78887;SDS011;68276;49.326;8.690;2023-07-08T17:02:15;9.98;;;4.13;;
78887;SDS011;68276;49.326;8.690;2023-07-08T17:04:41;6.70;;;2.78;;
78887;SDS011;68276;49.326;8.690;2023-07-08T17:07:09;7.57;;;3.22;;
78887;SDS011;68276;49.326;8.690;2023-07-08T17:09:35;7.00;;;2.80;;
78887;SDS011;68276;49.326;8.690;2023-07-08T17:12:01;6.35;;;2.22;;
78887;SDS011;68276;49.326;8.690;2023-07-08T17:14:27;6.43;;;2.25;;
78887;SDS011;68276;49.326;8.690;2023-07-08T17:16:52;13.88;;;8.07;;
78887;SDS011;68276;49.326;8.690;2023-07-08T17:19:17;7.80;;;2.30;;
78887;SDS011;68276;49.326;8.690;2023-07-08T17:21:43;6.57;;;2.20;;
78887;SDS011;68276;49.326;8.690;2023-07-08T17:24:10;6.25;;;2.05;;
78887;SDS011;68276;49.326;8.690;2023-07-08T17:26:38;6.85;;;2.13;;
78887;SDS011;68276;49.326;8.690;2023-07-08T17:29:04;8.50;;;2.35;;
78887;SDS011;68276;49.326;8.690;2023-07-08T17:31:30;8.10;;;2.45;;
78887;SDS011;68276;49.326;8.690;2023-07-08T17:33:56;7.35;;;2.20;;